createdAt,value
2022-09-06T00:00:44.021Z,56.44
2022-09-06T00:01:43.995Z,56.41
2022-09-06T00:02:44.154Z,56.71
2022-09-06T00:03:44.050Z,56.64
2022-09-06T00:04:43.978Z,56.64
2022-09-06T00:05:43.971Z,56.74
2022-09-06T00:06:43.945Z,56.44
2022-09-06T00:07:43.920Z,56.74
2022-09-06T00:08:43.970Z,56.64
2022-09-06T00:09:43.929Z,56.74
2022-09-06T00:10:43.882Z,56.64
2022-09-06T00:11:43.868Z,56.84
2022-09-06T00:12:43.898Z,56.94
2022-09-06T00:13:43.868Z,56.74
2022-09-06T00:14:43.834Z,57.04
2022-09-06T00:15:43.882Z,57.04
2022-09-06T00:16:43.804Z,57.64
2022-09-06T00:17:43.793Z,56.84
2022-09-06T00:18:43.814Z,56.74
2022-09-06T00:19:43.762Z,57.14
2022-09-06T00:20:43.778Z,56.34
2022-09-06T00:21:43.758Z,56.44
2022-09-06T00:22:43.753Z,56.94
2022-09-06T00:23:43.736Z,56.84
2022-09-06T00:24:43.726Z,56.74
2022-09-06T00:25:43.684Z,56.84
2022-09-06T00:26:43.694Z,56.44
2022-09-06T00:27:43.680Z,56.14
2022-09-06T00:28:43.677Z,56.04
2022-09-06T00:29:43.638Z,56.24
2022-09-06T00:30:43.701Z,56.14
2022-09-06T00:31:43.624Z,56.24
2022-09-06T00:32:43.595Z,57.74
2022-09-06T00:33:43.617Z,58.54
2022-09-06T00:34:43.590Z,59.53
2022-09-06T00:35:43.565Z,60.33
2022-09-06T00:36:43.555Z,61.57
2022-09-06T00:37:43.545Z,63.17
2022-09-06T00:38:43.559Z,65.49
2022-09-06T00:39:43.567Z,66.02
2022-09-06T00:40:43.525Z,68.93
2022-09-06T00:41:43.476Z,70.16
2022-09-06T00:42:43.514Z,71.30
2022-09-06T00:43:43.640Z,72.73
2022-09-06T00:44:43.439Z,72.83
2022-09-06T00:45:43.424Z,73.77
2022-09-06T00:46:43.492Z,73.57
2022-09-06T00:47:43.398Z,74.01
2022-09-06T00:48:43.409Z,74.20
2022-09-06T00:49:43.398Z,74.51
2022-09-06T00:50:43.363Z,75.60
2022-09-06T00:51:43.350Z,75.84
2022-09-06T00:52:43.359Z,76.65
2022-09-06T00:53:43.336Z,77.05
2022-09-06T00:54:43.311Z,77.05
2022-09-06T00:55:43.301Z,77.65
2022-09-06T00:56:43.313Z,77.79
2022-09-06T00:57:43.279Z,78.39
2022-09-06T00:58:43.277Z,78.59
2022-09-06T00:59:43.257Z,78.09
2022-09-06T01:00:43.237Z,78.39
2022-09-06T01:01:43.327Z,78.09
2022-09-06T01:02:43.307Z,78.29
2022-09-06T01:03:43.214Z,78.19
2022-09-06T01:04:43.182Z,79.39
2022-09-06T01:05:43.166Z,78.49
2022-09-06T01:06:43.161Z,78.29
2022-09-06T01:07:43.137Z,77.69
2022-09-06T01:08:43.148Z,78.79
2022-09-06T01:09:43.117Z,78.89
2022-09-06T01:10:43.102Z,79.39
2022-09-06T01:11:43.094Z,78.69
2022-09-06T01:12:43.112Z,79.39
2022-09-06T01:13:43.088Z,79.80
2022-09-06T01:14:43.053Z,79.73
2022-09-06T01:15:43.083Z,80.43
2022-09-06T01:16:43.030Z,81.04
2022-09-06T01:17:43.008Z,81.84
2022-09-06T01:18:43.025Z,81.78
2022-09-06T01:19:43.010Z,82.18
2022-09-06T01:20:42.983Z,83.23
2022-09-06T01:21:42.954Z,84.53
2022-09-06T01:22:42.958Z,85.24
2022-09-06T01:23:42.959Z,85.24
2022-09-06T01:24:42.920Z,85.84
2022-09-06T01:25:42.908Z,85.68
2022-09-06T01:26:42.893Z,85.98
2022-09-06T01:27:42.899Z,86.18
2022-09-06T01:28:42.874Z,85.78
2022-09-06T01:29:42.847Z,86.58
2022-09-06T01:30:42.883Z,86.48
2022-09-06T01:31:42.839Z,86.79
2022-09-06T01:32:42.832Z,86.58
2022-09-06T01:33:42.803Z,87.08
2022-09-06T01:34:42.798Z,86.88
2022-09-06T01:35:42.797Z,86.99
2022-09-06T01:37:06.237Z,87.69
2022-09-06T01:37:42.774Z,87.39
2022-09-06T01:38:42.737Z,87.89
2022-09-06T01:39:42.758Z,88.29
2022-09-06T01:40:42.720Z,88.19
2022-09-06T01:41:42.715Z,88.19
2022-09-06T01:42:42.711Z,89.80
2022-09-06T01:43:42.683Z,90.30
2022-09-06T01:44:42.657Z,90.65
2022-09-06T01:45:42.715Z,91.05
2022-09-06T01:46:42.642Z,91.55
2022-09-06T01:47:42.659Z,91.75
2022-09-06T01:48:42.636Z,91.75
2022-09-06T01:49:42.612Z,91.25
2022-09-06T01:50:42.586Z,91.66
2022-09-06T01:51:42.575Z,92.06
2022-09-06T01:52:42.629Z,92.50
2022-09-06T01:53:42.541Z,92.71
2022-09-06T01:54:42.527Z,92.91
2022-09-06T01:55:42.533Z,93.01
2022-09-06T01:56:42.502Z,93.11
2022-09-06T01:57:42.511Z,93.21
2022-09-06T01:58:42.501Z,93.31
2022-09-06T01:59:42.462Z,93.21
2022-09-06T02:00:42.453Z,92.80
2022-09-06T02:01:42.489Z,93.07
2022-09-06T02:02:42.495Z,93.31
2022-09-06T02:03:42.406Z,93.37
2022-09-06T02:04:42.412Z,93.46
2022-09-06T02:05:42.382Z,93.46
2022-09-06T02:06:42.372Z,93.66
2022-09-06T02:07:42.364Z,93.01
2022-09-06T02:08:42.338Z,92.76
2022-09-06T02:09:42.336Z,92.96
2022-09-06T02:10:42.319Z,92.46
2022-09-06T02:11:42.319Z,92.16
2022-09-06T02:12:42.311Z,92.06
2022-09-06T02:13:42.273Z,92.06
2022-09-06T02:14:42.265Z,92.36
2022-09-06T02:15:42.254Z,92.46
2022-09-06T02:16:42.301Z,92.66
2022-09-06T02:17:42.241Z,92.66
2022-09-06T02:18:42.234Z,92.76
2022-09-06T02:19:42.195Z,92.86
2022-09-06T02:20:42.203Z,93.16
2022-09-06T02:21:42.177Z,93.27
2022-09-06T02:22:42.299Z,93.27
2022-09-06T02:23:42.139Z,93.37
2022-09-06T02:24:42.143Z,93.57
2022-09-06T02:25:42.169Z,93.77
2022-09-06T02:26:42.109Z,93.87
2022-09-06T02:27:42.126Z,94.07
2022-09-06T02:28:42.120Z,94.47
2022-09-06T02:29:42.084Z,94.67
2022-09-06T02:30:42.131Z,94.47
2022-09-06T02:31:42.091Z,94.47
2022-09-06T02:32:42.091Z,94.67
2022-09-06T02:33:42.012Z,94.67
2022-09-06T02:34:42.040Z,94.57
2022-09-06T02:35:41.984Z,94.37
2022-09-06T02:36:42.025Z,94.17
2022-09-06T02:37:41.973Z,94.07
2022-09-06T02:38:41.950Z,94.17
2022-09-06T02:39:41.981Z,94.17
2022-09-06T02:40:41.939Z,93.97
2022-09-06T02:41:41.939Z,93.77
2022-09-06T02:42:41.899Z,93.57
2022-09-06T02:43:41.952Z,93.57
2022-09-06T02:44:41.894Z,93.37
2022-09-06T02:45:41.910Z,92.96
2022-09-06T02:46:42.222Z,92.96
2022-09-06T02:47:41.832Z,93.07
2022-09-06T02:48:41.849Z,93.27
2022-09-06T02:49:41.809Z,92.96
2022-09-06T02:50:41.793Z,92.86
2022-09-06T02:51:41.800Z,92.66
2022-09-06T02:52:41.791Z,92.46
2022-09-06T02:53:41.750Z,92.46
2022-09-06T02:54:41.737Z,92.56
2022-09-06T02:55:41.727Z,92.56
2022-09-06T02:56:41.729Z,92.56
2022-09-06T02:57:41.697Z,92.86
2022-09-06T02:58:41.691Z,93.07
2022-09-06T02:59:41.687Z,92.86
2022-09-06T03:00:41.678Z,92.86
2022-09-06T03:01:41.772Z,93.02
2022-09-06T03:02:41.719Z,92.82
2022-09-06T03:03:41.621Z,92.82
2022-09-06T03:04:41.632Z,93.02
2022-09-06T03:05:41.591Z,92.92
2022-09-06T03:06:41.613Z,92.22
2022-09-06T03:07:41.575Z,92.02
2022-09-06T03:08:41.597Z,92.02
2022-09-06T03:09:41.538Z,92.02
2022-09-06T03:10:41.543Z,92.32
2022-09-06T03:11:41.533Z,92.52
2022-09-06T03:12:41.506Z,92.76
2022-09-06T03:13:41.501Z,92.96
2022-09-06T03:14:41.487Z,93.27
2022-09-06T03:15:41.459Z,93.27
2022-09-06T03:16:41.576Z,93.46
2022-09-06T03:17:41.433Z,93.46
2022-09-06T03:18:41.424Z,93.46
2022-09-06T03:19:41.425Z,93.57
2022-09-06T03:20:41.397Z,93.77
2022-09-06T03:21:41.393Z,93.87
2022-09-06T03:22:41.391Z,94.07
2022-09-06T03:23:41.351Z,94.07
2022-09-06T03:24:41.341Z,94.27
2022-09-06T03:25:41.327Z,94.37
2022-09-06T03:26:41.333Z,94.37
2022-09-06T03:27:41.325Z,93.87
2022-09-06T03:28:41.292Z,93.77
2022-09-06T03:29:41.288Z,93.46
2022-09-06T03:30:41.337Z,93.16
2022-09-06T03:31:41.267Z,93.27
2022-09-06T03:32:41.233Z,92.96
2022-09-06T03:33:41.237Z,92.86
2022-09-06T03:34:41.213Z,92.96
2022-09-06T03:35:41.196Z,92.76
2022-09-06T03:36:41.204Z,92.76
2022-09-06T03:37:41.173Z,92.46
2022-09-06T03:38:41.161Z,92.26
2022-09-06T03:39:41.176Z,92.36
2022-09-06T03:40:41.132Z,91.96
2022-09-06T03:41:41.145Z,91.96
2022-09-06T03:42:41.107Z,92.16
2022-09-06T03:43:41.094Z,92.26
2022-09-06T03:44:41.096Z,92.36
2022-09-06T03:45:41.154Z,92.46
2022-09-06T03:46:41.072Z,92.46
2022-09-06T03:47:41.046Z,92.26
2022-09-06T03:48:41.022Z,92.36
2022-09-06T03:49:41.022Z,92.36
2022-09-06T03:50:41.040Z,92.46
2022-09-06T03:51:41.023Z,92.46
2022-09-06T03:52:40.987Z,92.16
2022-09-06T03:53:40.962Z,91.96
2022-09-06T03:54:40.954Z,91.96
2022-09-06T03:55:40.948Z,92.06
2022-09-06T03:56:40.952Z,91.75
2022-09-06T03:57:40.913Z,91.86
2022-09-06T03:58:40.892Z,91.86
2022-09-06T03:59:40.884Z,91.86
2022-09-06T04:00:40.865Z,91.75
2022-09-06T04:01:40.920Z,91.86
2022-09-06T04:02:40.890Z,91.75
2022-09-06T04:03:40.850Z,91.66
2022-09-06T04:04:40.808Z,91.46
2022-09-06T04:05:40.809Z,91.35
2022-09-06T04:06:40.785Z,91.25
2022-09-06T04:07:40.804Z,91.25
2022-09-06T04:08:40.757Z,91.35
2022-09-06T04:09:40.751Z,91.46
2022-09-06T04:10:40.741Z,91.55
2022-09-06T04:11:43.783Z,91.75
2022-09-06T04:12:40.734Z,91.75
2022-09-06T04:13:40.696Z,91.86
2022-09-06T04:14:40.676Z,92.06
2022-09-06T04:15:40.676Z,92.06
2022-09-06T04:16:40.755Z,92.16
2022-09-06T04:17:40.666Z,92.26
2022-09-06T04:18:40.625Z,92.26
2022-09-06T04:19:40.692Z,92.26
2022-09-06T04:20:40.604Z,92.16
2022-09-06T04:21:40.593Z,92.36
2022-09-06T04:22:40.602Z,92.46
2022-09-06T04:23:40.527Z,92.56
2022-09-06T04:24:40.561Z,92.66
2022-09-06T04:25:40.539Z,92.76
2022-09-06T04:26:40.483Z,92.76
2022-09-06T04:27:40.483Z,92.86
2022-09-06T04:28:40.448Z,92.86
2022-09-06T04:29:40.489Z,92.80
2022-09-06T04:30:40.474Z,92.71
2022-09-06T04:31:40.444Z,92.80
2022-09-06T04:32:40.433Z,92.80
2022-09-06T04:33:40.386Z,92.91
2022-09-06T04:34:40.369Z,92.91
2022-09-06T04:35:40.361Z,92.80
2022-09-06T04:36:40.343Z,92.91
2022-09-06T04:37:40.432Z,93.01
2022-09-06T04:38:40.329Z,93.11
2022-09-06T04:39:40.377Z,93.11
2022-09-06T04:40:40.290Z,93.21
2022-09-06T04:41:40.283Z,93.41
2022-09-06T04:42:40.568Z,93.31
2022-09-06T04:43:40.241Z,93.31
2022-09-06T04:44:40.244Z,93.31
2022-09-06T04:45:40.284Z,93.31
2022-09-06T04:46:40.206Z,93.31
2022-09-06T04:47:40.216Z,93.31
2022-09-06T04:48:40.181Z,93.41
2022-09-06T04:49:40.182Z,93.41
2022-09-06T04:50:40.155Z,93.51
2022-09-06T04:51:40.157Z,93.71
2022-09-06T04:52:40.145Z,93.61
2022-09-06T04:53:40.138Z,93.61
2022-09-06T04:54:40.102Z,93.61
2022-09-06T04:55:40.102Z,93.61
2022-09-06T04:56:40.079Z,93.71
2022-09-06T04:57:45.038Z,93.81
2022-09-06T04:58:40.056Z,93.91
2022-09-06T04:59:40.051Z,94.06
2022-09-06T05:00:40.110Z,94.16
2022-09-06T05:01:40.019Z,94.06
2022-09-06T05:02:40.061Z,94.06
2022-09-06T05:03:39.986Z,94.26
2022-09-06T05:04:39.974Z,94.12
2022-09-06T05:05:39.983Z,94.12
2022-09-06T05:06:39.945Z,94.01
2022-09-06T05:07:39.969Z,93.91
2022-09-06T05:08:39.916Z,93.91
2022-09-06T05:09:39.928Z,93.81
2022-09-06T05:10:39.939Z,93.71
2022-09-06T05:11:39.884Z,93.81
2022-09-06T05:12:44.152Z,93.81
2022-09-06T05:13:39.863Z,93.71
2022-09-06T05:14:39.841Z,93.71
2022-09-06T05:15:39.838Z,93.71
2022-09-06T05:16:39.851Z,93.61
2022-09-06T05:17:39.821Z,93.51
2022-09-06T05:18:39.789Z,93.41
2022-09-06T05:19:39.790Z,93.41
2022-09-06T05:20:39.758Z,93.31
2022-09-06T05:21:39.757Z,93.31
2022-09-06T05:22:39.755Z,93.31
2022-09-06T05:23:39.729Z,93.21
2022-09-06T05:24:39.714Z,93.21
2022-09-06T05:25:39.695Z,93.21
2022-09-06T05:26:39.680Z,93.31
2022-09-06T05:27:39.693Z,93.21
2022-09-06T05:28:39.705Z,93.31
2022-09-06T05:29:39.649Z,93.21
2022-09-06T05:30:39.635Z,93.21
2022-09-06T05:31:39.702Z,93.16
2022-09-06T05:32:39.615Z,93.16
2022-09-06T05:33:39.586Z,93.07
2022-09-06T05:34:39.596Z,93.07
2022-09-06T05:35:39.574Z,92.96
2022-09-06T05:36:39.555Z,92.86
2022-09-06T05:37:39.557Z,92.76
2022-09-06T05:38:39.523Z,92.66
2022-09-06T05:39:39.612Z,92.66
2022-09-06T05:40:39.499Z,92.36
2022-09-06T05:41:39.487Z,92.16
2022-09-06T05:42:39.492Z,92.06
2022-09-06T05:43:39.526Z,91.96
2022-09-06T05:44:39.438Z,91.86
2022-09-06T05:45:39.494Z,91.96
2022-09-06T05:46:39.420Z,91.86
2022-09-06T05:47:39.499Z,91.96
2022-09-06T05:48:39.382Z,91.86
2022-09-06T05:49:39.381Z,91.86
2022-09-06T05:50:39.368Z,91.75
2022-09-06T05:51:39.357Z,91.61
2022-09-06T05:52:39.386Z,91.61
2022-09-06T05:53:39.333Z,91.61
2022-09-06T05:54:39.306Z,91.31
2022-09-06T05:55:42.866Z,91.21
2022-09-06T05:56:39.280Z,91.11
2022-09-06T05:57:39.298Z,91.11
2022-09-06T05:58:39.265Z,90.77
2022-09-06T05:59:39.260Z,90.26
2022-09-06T06:00:39.226Z,90.06
2022-09-06T06:01:39.281Z,89.86
2022-09-06T06:02:39.261Z,89.76
2022-09-06T06:03:39.203Z,89.56
2022-09-06T06:04:39.176Z,89.56
2022-09-06T06:05:39.175Z,89.42
2022-09-06T06:06:39.173Z,89.42
2022-09-06T06:07:39.157Z,89.31
2022-09-06T06:08:39.135Z,89.22
2022-09-06T06:09:39.124Z,89.31
2022-09-06T06:10:39.105Z,89.22
2022-09-06T06:11:39.087Z,88.81
2022-09-06T06:12:39.106Z,88.51
2022-09-06T06:13:39.068Z,88.41
2022-09-06T06:14:39.046Z,88.61
2022-09-06T06:15:39.040Z,88.71
2022-09-06T06:16:39.093Z,88.21
2022-09-06T06:17:39.040Z,88.01
2022-09-06T06:18:38.990Z,87.91
2022-09-06T06:19:38.998Z,87.96
2022-09-06T06:20:38.976Z,87.77
2022-09-06T06:21:38.965Z,87.87
2022-09-06T06:22:38.959Z,87.06
2022-09-06T06:23:38.936Z,86.96
2022-09-06T06:24:38.922Z,86.66
2022-09-06T06:25:38.906Z,86.76
2022-09-06T06:26:38.905Z,86.62
2022-09-06T06:27:38.905Z,86.52
2022-09-06T06:28:38.924Z,86.02
2022-09-06T06:29:38.928Z,86.02
2022-09-06T06:30:38.838Z,85.92
2022-09-06T06:31:38.880Z,86.12
2022-09-06T06:32:38.874Z,85.72
2022-09-06T06:33:38.810Z,85.68
2022-09-06T06:34:38.824Z,85.58
2022-09-06T06:35:40.195Z,85.27
2022-09-06T06:36:38.765Z,84.97
2022-09-06T06:37:38.752Z,84.67
2022-09-06T06:38:38.752Z,83.93
2022-09-06T06:39:38.817Z,84.13
2022-09-06T06:40:38.737Z,83.83
2022-09-06T06:41:38.713Z,83.33
2022-09-06T06:42:38.693Z,82.73
2022-09-06T06:43:38.693Z,82.23
2022-09-06T06:44:38.698Z,82.23
2022-09-06T06:45:38.732Z,82.69
2022-09-06T06:46:38.630Z,82.39
2022-09-06T06:47:38.620Z,82.69
2022-09-06T06:48:38.642Z,82.59
2022-09-06T06:49:38.599Z,82.59
2022-09-06T06:50:38.585Z,81.88
2022-09-06T06:51:38.565Z,82.39
2022-09-06T06:52:38.567Z,81.29
2022-09-06T06:53:38.544Z,81.09
2022-09-06T06:54:38.542Z,81.09
2022-09-06T06:55:38.514Z,81.04
2022-09-06T06:56:38.539Z,80.85
2022-09-06T06:57:38.525Z,80.85
2022-09-06T06:58:38.498Z,81.04
2022-09-06T06:59:38.465Z,80.35
2022-09-06T07:00:38.472Z,80.44
2022-09-06T07:01:38.553Z,80.94
2022-09-06T07:02:38.443Z,80.54
2022-09-06T07:03:38.433Z,80.41
2022-09-06T07:04:38.432Z,80.21
2022-09-06T07:07:41.025Z,79.60
2022-09-06T07:08:38.351Z,78.80
2022-09-06T07:10:38.329Z,78.41
2022-09-06T07:11:38.304Z,78.67
2022-09-06T07:12:38.388Z,77.97
2022-09-06T07:20:14.521Z,75.63
2022-09-06T07:22:02.891Z,75.93
2022-09-06T07:24:08.004Z,74.39
2022-09-06T07:24:59.027Z,73.69
2022-09-06T07:25:58.993Z,74.09
2022-09-06T07:28:00.568Z,73.49
2022-09-06T07:28:58.975Z,73.49
2022-09-06T07:29:58.949Z,73.86
2022-09-06T07:30:59.008Z,72.59
2022-09-06T07:32:14.161Z,72.79
2022-09-06T07:32:58.933Z,73.09
2022-09-06T07:33:58.898Z,72.56
2022-09-06T07:34:58.916Z,73.06
2022-09-06T07:35:58.880Z,72.26
2022-09-06T07:36:58.860Z,72.06
2022-09-06T07:37:58.915Z,71.66
2022-09-06T07:38:58.844Z,71.22
2022-09-06T07:39:58.861Z,71.52
2022-09-06T07:40:58.838Z,71.03
2022-09-06T07:41:58.804Z,70.32
2022-09-06T07:42:58.800Z,70.72
2022-09-06T07:43:58.831Z,70.92
2022-09-06T07:44:58.750Z,71.12
2022-09-06T07:45:58.745Z,70.23
2022-09-06T07:47:59.044Z,69.69
2022-09-06T07:48:58.742Z,69.69
2022-09-06T07:50:59.151Z,68.89
2022-09-06T07:51:58.786Z,68.89
2022-09-06T07:54:19.265Z,68.99
2022-09-06T07:54:58.624Z,68.86
2022-09-06T07:55:58.609Z,68.76
2022-09-06T07:56:58.619Z,67.86
2022-09-06T07:57:58.575Z,68.36
2022-09-06T07:58:58.566Z,68.06
2022-09-06T07:59:58.566Z,68.16
2022-09-06T08:00:58.613Z,68.16
2022-09-06T08:01:58.591Z,66.33
2022-09-06T08:02:59.255Z,66.63
2022-09-06T08:03:58.496Z,65.94
2022-09-06T08:04:58.502Z,66.03
2022-09-06T08:06:13.712Z,66.03
2022-09-06T08:08:59.050Z,66.13
2022-09-06T08:09:58.415Z,66.73
2022-09-06T08:10:58.406Z,65.70
2022-09-06T08:11:58.411Z,66.40
2022-09-06T08:12:58.422Z,65.50
2022-09-06T08:13:58.367Z,65.97
2022-09-06T08:14:58.366Z,65.17
2022-09-06T08:15:58.400Z,65.37
2022-09-06T08:16:58.349Z,66.97
2022-09-06T08:17:58.324Z,64.37
2022-09-06T08:18:58.304Z,65.27
2022-09-06T08:19:58.319Z,65.27
2022-09-06T08:20:58.283Z,64.37
2022-09-06T08:21:58.269Z,64.28
2022-09-06T08:22:58.262Z,64.67
2022-09-06T08:23:58.236Z,64.07
2022-09-06T08:24:58.229Z,64.58
2022-09-06T08:25:58.217Z,64.48
2022-09-06T08:26:58.250Z,63.55
2022-09-06T08:27:58.208Z,63.85
2022-09-06T08:28:58.202Z,64.45
2022-09-06T08:29:58.261Z,64.51
2022-09-06T08:30:58.162Z,63.82
2022-09-06T08:31:58.213Z,63.89
2022-09-06T08:32:58.131Z,63.69
2022-09-06T08:33:58.115Z,62.49
2022-09-06T08:34:58.121Z,62.46
2022-09-06T08:35:58.069Z,62.04
2022-09-06T08:36:58.081Z,61.01
2022-09-06T08:37:58.052Z,58.57
2022-09-06T08:38:58.042Z,57.03
2022-09-06T08:39:58.146Z,55.91
2022-09-06T08:40:58.008Z,55.29
2022-09-06T08:41:58.053Z,54.47
2022-09-06T08:42:57.982Z,53.92
2022-09-06T08:44:58.550Z,52.09
2022-09-06T08:45:57.957Z,51.87
2022-09-06T08:46:58.063Z,52.29
2022-09-06T08:47:57.912Z,52.58
2022-09-06T08:48:57.919Z,53.22
2022-09-06T08:49:57.885Z,51.32
2022-09-06T08:50:57.889Z,50.90
2022-09-06T08:51:57.965Z,50.59
2022-09-06T08:53:57.845Z,49.01
2022-09-06T08:54:57.850Z,48.71
2022-09-06T08:55:57.807Z,49.55
2022-09-06T08:56:57.817Z,50.36
2022-09-06T08:57:57.786Z,50.16
2022-09-06T08:58:57.771Z,52.68
2022-09-06T08:59:57.803Z,49.65
2022-09-06T09:00:57.874Z,50.24
2022-09-06T09:01:57.793Z,50.12
2022-09-06T09:02:57.725Z,49.67
2022-09-06T09:03:57.712Z,49.87
2022-09-06T09:04:57.697Z,49.99
2022-09-06T09:05:57.678Z,50.71
2022-09-06T09:06:57.697Z,50.90
2022-09-06T09:07:57.701Z,50.29
2022-09-06T09:08:57.647Z,50.85
2022-09-06T09:09:57.634Z,49.03
2022-09-06T09:10:57.618Z,50.16
2022-09-06T09:11:57.617Z,49.62
2022-09-06T09:12:57.591Z,47.22
2022-09-06T09:13:57.608Z,46.01
2022-09-06T09:14:57.585Z,45.32
2022-09-06T09:15:57.592Z,45.62
2022-09-06T09:16:57.582Z,45.37
2022-09-06T09:17:57.533Z,46.62
2022-09-06T09:18:57.537Z,48.59
2022-09-06T09:19:57.508Z,48.64
2022-09-06T09:20:57.508Z,45.86
2022-09-06T09:21:57.553Z,46.18
2022-09-06T09:22:57.492Z,46.37
2022-09-06T09:23:57.450Z,45.96
2022-09-06T09:24:57.446Z,46.55
2022-09-06T09:25:57.429Z,46.15
2022-09-06T09:26:57.445Z,45.78
2022-09-06T09:27:57.408Z,46.12
2022-09-06T09:28:57.413Z,47.33
2022-09-06T09:30:57.478Z,47.50
2022-09-06T09:31:57.418Z,46.30
2022-09-06T09:32:57.357Z,46.40
2022-09-06T09:33:57.337Z,47.48
2022-09-06T09:34:57.335Z,47.44
2022-09-06T09:35:57.309Z,46.31
2022-09-06T09:37:57.453Z,44.77
2022-09-06T09:38:57.282Z,43.96
2022-09-06T09:39:57.368Z,42.39
2022-09-06T09:40:57.289Z,42.88
2022-09-06T09:41:57.270Z,43.96
2022-09-06T09:42:57.267Z,44.45
2022-09-06T09:44:01.087Z,43.84
2022-09-06T09:44:57.217Z,42.15
2022-09-06T09:45:57.177Z,42.19
2022-09-06T09:46:57.246Z,43.10
2022-09-06T09:47:57.172Z,43.12
2022-09-06T09:48:57.240Z,43.53
2022-09-06T09:49:57.235Z,44.02
2022-09-06T09:50:57.133Z,43.73
2022-09-06T09:51:57.131Z,45.38
2022-09-06T09:52:57.115Z,44.37
2022-09-06T09:53:57.169Z,43.29
2022-09-06T09:54:57.071Z,42.79
2022-09-06T09:55:57.102Z,43.29
2022-09-06T09:56:57.071Z,44.18
2022-09-06T09:57:57.035Z,42.41
2022-09-06T09:58:57.023Z,43.75
2022-09-06T09:59:57.019Z,45.40
2022-09-06T10:00:57.013Z,44.37
2022-09-06T10:01:57.014Z,44.13
2022-09-06T10:02:57.015Z,42.62
2022-09-06T10:04:56.955Z,40.21
2022-09-06T10:06:02.260Z,40.64
2022-09-06T10:07:12.333Z,40.84
2022-09-06T10:07:56.917Z,41.50
2022-09-06T10:08:56.908Z,40.33
2022-09-06T10:09:56.894Z,42.09
2022-09-06T10:10:56.877Z,40.33
2022-09-06T10:11:56.878Z,40.16
2022-09-06T10:12:56.866Z,41.27
2022-09-06T10:13:56.857Z,41.92
2022-09-06T10:14:56.861Z,42.85
2022-09-06T10:15:56.875Z,42.45
2022-09-06T10:16:56.822Z,43.43
2022-09-06T10:17:56.807Z,43.12
2022-09-06T10:18:56.794Z,42.58
2022-09-06T10:19:56.778Z,43.92
2022-09-06T10:20:56.756Z,42.13
2022-09-06T10:21:56.799Z,43.17
2022-09-06T10:22:56.877Z,39.84
2022-09-06T10:24:56.750Z,42.21
2022-09-06T10:25:56.702Z,41.33
2022-09-06T10:26:56.721Z,40.72
2022-09-06T10:28:12.195Z,41.49
2022-09-06T10:28:56.687Z,42.95
2022-09-06T10:29:56.657Z,40.19
2022-09-06T10:30:56.732Z,39.22
2022-09-06T10:31:56.644Z,39.72
2022-09-06T10:32:56.620Z,40.31
2022-09-06T10:33:56.608Z,41.39
2022-09-06T10:34:56.606Z,39.14
2022-09-06T10:35:56.599Z,40.37
2022-09-06T10:36:56.592Z,41.49
2022-09-06T10:37:56.601Z,41.80
2022-09-06T10:39:00.355Z,42.21
2022-09-06T10:39:56.739Z,42.19
2022-09-06T10:40:56.531Z,41.61
2022-09-06T10:41:56.520Z,41.72
2022-09-06T10:42:56.515Z,42.41
2022-09-06T10:43:56.501Z,42.61
2022-09-06T10:44:56.480Z,42.80
2022-09-06T10:45:56.480Z,42.32
2022-09-06T10:46:56.608Z,41.92
2022-09-06T10:47:56.458Z,41.71
2022-09-06T10:48:56.440Z,41.39
2022-09-06T10:49:56.423Z,41.71
2022-09-06T10:50:56.412Z,41.58
2022-09-06T10:51:56.430Z,42.35
2022-09-06T10:52:56.384Z,41.33
2022-09-06T10:53:56.375Z,40.31
2022-09-06T10:54:56.360Z,39.43
2022-09-06T10:55:59.784Z,40.21
2022-09-06T10:56:56.358Z,39.82
2022-09-06T10:59:56.311Z,41.56
2022-09-06T11:00:56.285Z,41.25
2022-09-06T11:01:56.450Z,42.60
2022-09-06T11:04:00.081Z,40.39
2022-09-06T11:05:56.384Z,39.90
2022-09-06T11:06:56.324Z,39.45
2022-09-06T11:08:58.277Z,41.27
2022-09-06T11:09:56.181Z,41.98
2022-09-06T11:10:56.188Z,42.27
2022-09-06T11:11:56.149Z,42.10
2022-09-06T11:12:56.229Z,42.29
2022-09-06T11:13:56.130Z,42.49
2022-09-06T11:14:56.127Z,44.23
2022-09-06T11:15:56.215Z,42.91
2022-09-06T11:16:56.097Z,42.11
2022-09-06T11:17:56.117Z,41.42
2022-09-06T11:18:56.077Z,41.23
2022-09-06T11:19:56.051Z,41.45
2022-09-06T11:20:56.060Z,41.47
2022-09-06T11:21:56.025Z,42.45
2022-09-06T11:22:56.015Z,43.70
2022-09-06T11:23:56.028Z,40.84
2022-09-06T11:24:56.006Z,40.33
2022-09-06T11:25:55.975Z,41.21
2022-09-06T11:26:55.985Z,41.45
2022-09-06T11:27:58.061Z,43.09
2022-09-06T11:28:55.944Z,40.35
2022-09-06T11:29:55.957Z,40.78
2022-09-06T11:30:56.033Z,41.49
2022-09-06T11:32:55.898Z,42.74
2022-09-06T11:34:00.709Z,42.82
2022-09-06T11:34:55.886Z,41.41
2022-09-06T11:35:55.888Z,39.94
2022-09-06T11:36:55.923Z,40.03
2022-09-06T11:37:55.893Z,39.84
2022-09-06T11:38:55.821Z,40.16
2022-09-06T11:40:55.872Z,41.15
2022-09-06T11:41:55.793Z,43.85
2022-09-06T11:42:55.792Z,40.62
2022-09-06T11:43:55.774Z,40.94
2022-09-06T11:44:55.757Z,42.00
2022-09-06T11:45:55.878Z,42.58
2022-09-06T11:46:55.784Z,44.16
2022-09-06T11:47:55.728Z,42.49
2022-09-06T11:48:55.707Z,42.58
2022-09-06T11:49:55.701Z,42.66
2022-09-06T11:50:55.720Z,41.96
2022-09-06T11:51:55.792Z,41.76
2022-09-06T11:52:55.671Z,42.55
2022-09-06T11:53:55.644Z,43.99
2022-09-06T11:54:55.672Z,41.42
2022-09-06T11:55:55.643Z,41.25
2022-09-06T11:56:55.612Z,42.86
2022-09-06T11:57:55.607Z,42.55
2022-09-06T11:58:55.585Z,42.88
2022-09-06T11:59:55.575Z,44.59
2022-09-06T12:00:55.580Z,46.14
2022-09-06T12:01:55.550Z,44.06
2022-09-06T12:04:06.780Z,43.39
2022-09-06T12:04:58.328Z,44.20
2022-09-06T12:05:55.531Z,44.49
2022-09-06T12:06:55.523Z,43.90
2022-09-06T12:07:55.481Z,44.59
2022-09-06T12:08:55.469Z,44.30
2022-09-06T12:09:55.456Z,45.10
2022-09-06T12:10:55.459Z,44.59
2022-09-06T12:11:55.433Z,45.18
2022-09-06T12:12:55.420Z,44.10
2022-09-06T12:13:55.433Z,45.26
2022-09-06T12:14:55.416Z,45.73
2022-09-06T12:15:55.446Z,43.66
2022-09-06T12:16:55.370Z,44.98
2022-09-06T12:17:55.374Z,46.06
2022-09-06T12:18:55.386Z,44.67
2022-09-06T12:19:55.351Z,44.74
2022-09-06T12:20:55.327Z,43.65
2022-09-06T12:21:55.311Z,44.45
2022-09-06T12:22:55.309Z,44.33
2022-09-06T12:23:55.296Z,44.84
2022-09-06T12:24:55.288Z,45.75
2022-09-06T12:25:55.266Z,45.38
2022-09-06T12:26:56.042Z,44.62
2022-09-06T12:27:55.246Z,45.97
2022-09-06T12:28:55.236Z,46.46
2022-09-06T12:29:55.229Z,44.89
2022-09-06T12:30:55.240Z,45.48
2022-09-06T12:31:55.224Z,45.10
2022-09-06T12:32:55.273Z,45.72
2022-09-06T12:33:55.171Z,46.21
2022-09-06T12:36:55.124Z,46.01
2022-09-06T12:37:55.131Z,45.32
2022-09-06T12:38:55.116Z,45.81
2022-09-06T12:39:55.223Z,45.79
2022-09-06T12:40:55.092Z,44.91
2022-09-06T12:41:55.100Z,45.40
2022-09-06T12:42:55.143Z,45.70
2022-09-06T12:43:55.045Z,45.79
2022-09-06T12:44:55.024Z,47.07
2022-09-06T12:45:55.028Z,47.17
2022-09-06T12:46:55.038Z,48.15
2022-09-06T12:47:55.009Z,46.09
2022-09-06T12:48:54.974Z,46.28
2022-09-06T12:49:55.003Z,46.09
2022-09-06T12:50:55.013Z,45.89
2022-09-06T12:51:54.993Z,45.97
2022-09-06T12:52:54.970Z,46.36
2022-09-06T12:53:54.984Z,44.96
2022-09-06T12:54:54.908Z,44.96
2022-09-06T12:55:54.918Z,44.79
2022-09-06T12:56:54.880Z,44.69
2022-09-06T12:57:54.867Z,45.50
2022-09-06T12:58:54.896Z,45.70
2022-09-06T12:59:54.906Z,46.01
2022-09-06T13:00:54.955Z,46.41
2022-09-06T13:01:54.954Z,46.50
2022-09-06T13:02:54.867Z,47.29
2022-09-06T13:03:54.800Z,46.41
2022-09-06T13:04:54.820Z,47.49
2022-09-06T13:05:54.786Z,48.27
2022-09-06T13:06:54.758Z,49.06
2022-09-06T13:07:54.745Z,45.42
2022-09-06T13:08:54.734Z,45.01
2022-09-06T13:09:54.710Z,43.53
2022-09-06T13:10:54.872Z,42.65
2022-09-06T13:11:54.708Z,43.43
2022-09-06T13:12:54.807Z,43.63
2022-09-06T13:13:54.667Z,44.32
2022-09-06T13:14:54.649Z,44.52
2022-09-06T13:15:54.702Z,45.10
2022-09-06T13:16:54.631Z,45.60
2022-09-06T13:17:54.621Z,44.91
2022-09-06T13:18:54.662Z,46.46
2022-09-06T13:19:54.730Z,45.18
2022-09-06T13:20:54.752Z,45.28
2022-09-06T13:21:54.560Z,44.77
2022-09-06T13:22:54.670Z,43.39
2022-09-06T13:23:54.625Z,43.00
2022-09-06T13:24:54.649Z,42.33
2022-09-06T13:25:54.641Z,42.33